Beards Fork, West Virginia
Current Conditions -  °F | °C
As of 10:51 AM on Friday 21 Nov 2014 (Local Time) from KBKW Reporting Station
Clear Clear  
Wind Chill: -8°   Ceiling: Unl
Heat Index: -3°   Visibility: 10mi
Dew Point: -13°   Wind: 7mph
Humidity: 49%   Direction: 310°NW
Pressure: 30.38"   Gusts: NA
Location:  38.096°N, 81.2492°W
Report Text: KBKW 211551Z AUTO 31006KT 10SM CLR M03/M13 A3038 RMK AO2 SLP328 T10331128
Loading
Personal Weather Stations






























Interactive Weather Map New forecast layout! Learn more

10-Day Weather Forecast

Advertisements
Track Severe Weather on mobile